Metlakatla, AK

7:23 AM AKST on December 07, 2016 (GMT -0900)
Annette Island | | Change Station

Elev 112 ft 55.04 °N, 131.57 °W | Updated 30 minutes ago

Clear
Clear
23 °F
Feels Like 18 °F
N
4
Wind Variable Wind from East

Today
High -- | Low -- °F
--% Chance of Precip.
Yesterday
High -- | Low -- °F
Precip. -- in
Pressure 30.47 in
Visibility 10.0 miles
Clouds Clear
Windchill 18 °F
Dew Point 15 °F
Humidity 72%
Rainfall 0.00 in
Snow Depth Not available.
7:57 AM 3:18 PM
First Quarter, 53% visible
METAR PANT 071553Z 08003KT 10SM CLR M05/M09 A3046 RMK AO2 SLP318 T10501094
Pressure 30.47 in
Visibility 10.0 miles
Clouds Clear
Windchill 18 °F
Dew Point 15 °F
Humidity 72%
Rainfall 0.00 in
Snow Depth Not available.
7:57 AM 3:18 PM
First Quarter, 53% visible
METAR PANT 071553Z 08003KT 10SM CLR M05/M09 A3046 RMK AO2 SLP318 T10501094

10-Day Weather Forecast

Almanac

Astronomy

Dec. 07, 2016 Rise Set
Actual Time
Civil Twilight
Nautical Twilight
Astronomical Twilight
Moon
Length of Visible Light
Length of Day
Tomorrow will be .
, % of the Moon is Illuminated

Today's Extremes

State Highs State Lows

Community

WunderPhotos

Upload Photos

1,956,132 photos uploaded!

WunderBlog® & News

Nearby

Air Quality

  Air Quality AQ Index Pollutant
Not available.

Snow Depth

Station Depth Elevation

Earthquake Activity

City Distance Mag. Time & Date
Minimum magnitude displayed is 2.5.

Coastal Water Temperatures

Place Temperature

Stations

Nearby Weather Stations

Station Location Temp. Windchill Dew Point Humidity Wind Precip. Elev Updated Type
                   

Watches & Warnings

There are currently no watches in effect.